createdAt,value
2022-07-28T00:03:36.336Z,32.03
2022-07-28T00:08:39.247Z,31.96
2022-07-28T00:13:41.385Z,32.05
2022-07-28T00:18:43.801Z,32.32
2022-07-28T00:23:45.836Z,32.06
2022-07-28T00:28:48.421Z,32.42
2022-07-28T00:33:50.363Z,32.23
2022-07-28T00:38:53.245Z,32.17
2022-07-28T00:43:55.545Z,32.34
2022-07-28T00:48:57.767Z,32.22
2022-07-28T00:53:59.758Z,32.47
2022-07-28T00:59:02.001Z,32.57
2022-07-28T01:04:04.708Z,32.21
2022-07-28T01:09:52.512Z,32.50
2022-07-28T01:15:03.615Z,32.47
2022-07-28T01:20:37.526Z,32.29
2022-07-28T01:25:57.445Z,32.71
2022-07-28T01:31:05.699Z,32.32
2022-07-28T01:36:11.517Z,32.48
2022-07-28T01:41:19.664Z,32.71
2022-07-28T01:46:22.902Z,32.65
2022-07-28T01:51:28.412Z,32.35
2022-07-28T01:56:33.678Z,32.40
2022-07-28T02:01:38.561Z,32.30
2022-07-28T02:06:43.099Z,32.45
2022-07-28T02:11:48.244Z,32.69
2022-07-28T02:16:56.370Z,32.36
2022-07-28T02:21:58.521Z,32.42
2022-07-28T02:27:19.783Z,32.19
2022-07-28T02:32:37.143Z,32.60
2022-07-28T02:37:45.588Z,32.47
2022-07-28T02:42:50.057Z,32.61
2022-07-28T02:47:56.413Z,32.52
2022-07-28T02:53:15.134Z,32.61
2022-07-28T02:58:24.081Z,32.42
2022-07-28T03:03:26.297Z,32.50
2022-07-28T03:08:28.579Z,32.33
2022-07-28T03:13:30.390Z,32.42
2022-07-28T03:18:32.672Z,32.58
2022-07-28T03:23:42.120Z,32.36
2022-07-28T03:28:46.251Z,32.67
2022-07-28T03:33:49.166Z,32.53
2022-07-28T03:39:03.851Z,32.71
2022-07-28T03:44:06.279Z,32.56
2022-07-28T03:49:08.489Z,32.39
2022-07-28T03:54:10.967Z,32.26
2022-07-28T03:59:13.145Z,32.13
2022-07-28T04:04:15.991Z,31.93
2022-07-28T04:09:18.188Z,31.90
2022-07-28T04:14:20.391Z,31.64
2022-07-28T04:19:22.639Z,32.00
2022-07-28T04:24:24.683Z,31.74
2022-07-28T04:29:27.277Z,32.11
2022-07-28T04:34:29.728Z,32.13
2022-07-28T04:39:31.686Z,31.79
2022-07-28T04:44:34.434Z,32.15
2022-07-28T04:49:36.521Z,32.21
2022-07-28T04:54:38.862Z,32.26
2022-07-28T04:59:40.809Z,32.39
2022-07-28T05:04:42.884Z,32.31
2022-07-28T05:09:44.776Z,32.36
2022-07-28T05:14:46.718Z,32.24
2022-07-28T05:19:48.937Z,32.11
2022-07-28T05:24:51.085Z,32.36
2022-07-28T05:29:53.290Z,32.17
2022-07-28T05:34:55.411Z,32.34
2022-07-28T05:39:57.470Z,32.46
2022-07-28T05:44:59.937Z,32.55
2022-07-28T05:50:02.368Z,32.44
2022-07-28T05:55:05.685Z,32.49
2022-07-28T06:00:09.504Z,32.47
2022-07-28T06:05:12.227Z,32.45
2022-07-28T06:10:16.496Z,32.18
2022-07-28T06:15:21.918Z,32.18
2022-07-28T06:20:24.899Z,32.12
2022-07-28T06:25:28.630Z,32.17
2022-07-28T06:30:32.176Z,32.23
2022-07-28T06:35:43.223Z,32.07
2022-07-28T06:40:50.436Z,32.31
2022-07-28T06:45:52.638Z,32.08
2022-07-28T06:50:54.795Z,32.24
2022-07-28T06:55:56.931Z,32.40
2022-07-28T07:00:59.155Z,32.25
2022-07-28T07:06:01.026Z,32.17
2022-07-28T07:11:03.274Z,32.03
2022-07-28T07:16:05.547Z,31.96
2022-07-28T07:21:07.957Z,32.07
2022-07-28T07:26:09.929Z,32.38
2022-07-28T07:31:12.126Z,32.30
2022-07-28T07:36:14.328Z,32.38
2022-07-28T07:41:16.170Z,32.28
2022-07-28T07:46:18.584Z,32.13
2022-07-28T07:51:20.537Z,32.15
2022-07-28T07:56:22.467Z,32.44
2022-07-28T08:01:24.611Z,32.38
2022-07-28T08:06:28.213Z,32.24
2022-07-28T08:11:31.181Z,32.18
2022-07-28T08:16:33.443Z,32.05
2022-07-28T08:21:35.365Z,31.90
2022-07-28T08:26:37.412Z,31.59
2022-07-28T08:31:39.288Z,31.89
2022-07-28T08:36:41.302Z,31.92
2022-07-28T08:41:52.067Z,31.63
2022-07-28T08:46:54.271Z,31.46
2022-07-28T08:51:58.512Z,31.70
2022-07-28T08:57:01.818Z,32.13
2022-07-28T09:02:03.946Z,31.85
2022-07-28T09:07:06.863Z,31.90
2022-07-28T09:12:09.337Z,32.05
2022-07-28T09:17:11.428Z,32.00
2022-07-28T09:22:13.898Z,32.09
2022-07-28T09:27:16.400Z,32.22
2022-07-28T09:32:20.239Z,31.75
2022-07-28T09:37:28.397Z,31.73
2022-07-28T09:42:46.655Z,32.08
2022-07-28T09:47:48.956Z,31.75
2022-07-28T09:52:51.198Z,31.70
2022-07-28T09:57:55.226Z,31.66
2022-07-28T10:02:57.273Z,32.05
2022-07-28T10:07:59.245Z,32.03
2022-07-28T10:13:06.491Z,31.94
2022-07-28T10:18:08.477Z,32.00
2022-07-28T10:23:12.989Z,31.86
2022-07-28T10:28:20.674Z,31.78
2022-07-28T10:33:25.128Z,31.79
2022-07-28T10:38:33.761Z,31.67
2022-07-28T10:43:37.037Z,31.89
2022-07-28T10:48:45.225Z,31.54
2022-07-28T10:53:55.424Z,31.42
2022-07-28T10:59:38.869Z,31.05
2022-07-28T11:04:52.129Z,31.29
2022-07-28T11:09:55.171Z,30.89
2022-07-28T11:14:58.653Z,30.79
2022-07-28T11:20:29.683Z,30.77
2022-07-28T11:25:31.853Z,30.69
2022-07-28T11:30:42.632Z,30.72
2022-07-28T11:35:44.273Z,30.73
2022-07-28T11:40:51.841Z,30.63
2022-07-28T11:46:02.469Z,30.51
2022-07-28T11:51:04.353Z,30.57
2022-07-28T11:56:11.822Z,30.76
2022-07-28T12:01:17.984Z,30.65
2022-07-28T12:06:27.216Z,30.72
2022-07-28T12:11:36.714Z,29.18
2022-07-28T12:16:41.936Z,29.02
2022-07-28T12:21:49.204Z,28.69
2022-07-28T12:26:51.478Z,28.89
2022-07-28T12:31:56.073Z,28.98
2022-07-28T12:37:02.376Z,29.45
2022-07-28T12:42:09.350Z,29.41
2022-07-28T12:47:13.256Z,29.32
2022-07-28T12:52:22.720Z,28.94
2022-07-28T12:57:50.901Z,29.07
2022-07-28T13:02:57.072Z,29.18
2022-07-28T13:08:03.565Z,29.12
2022-07-28T13:13:07.714Z,28.94
2022-07-28T13:18:09.600Z,29.29
2022-07-28T13:23:11.307Z,29.37
2022-07-28T13:28:31.664Z,29.29
2022-07-28T13:33:33.563Z,29.57
2022-07-28T13:38:35.474Z,29.52
2022-07-28T13:43:37.584Z,29.63
2022-07-28T13:48:57.874Z,29.41
2022-07-28T13:54:02.340Z,29.70
2022-07-28T13:59:04.244Z,29.82
2022-07-28T14:04:14.971Z,29.60
2022-07-28T14:09:21.196Z,29.58
2022-07-28T14:14:25.678Z,29.99
2022-07-28T14:19:39.298Z,30.00
2022-07-28T14:24:44.951Z,30.22
2022-07-28T14:29:47.272Z,30.12
2022-07-28T14:34:49.281Z,30.07
2022-07-28T14:39:51.990Z,29.72
2022-07-28T14:44:54.121Z,29.91
2022-07-28T14:49:58.171Z,29.58
2022-07-28T14:55:00.846Z,29.67
2022-07-28T15:00:03.005Z,29.85
2022-07-28T15:05:05.887Z,29.42
2022-07-28T15:10:08.219Z,29.99
2022-07-28T15:15:10.403Z,29.69
2022-07-28T15:20:12.481Z,29.86
2022-07-28T15:25:14.450Z,29.88
2022-07-28T15:30:16.786Z,29.85
2022-07-28T15:35:19.824Z,29.75
2022-07-28T15:40:22.461Z,30.17
2022-07-28T15:45:24.453Z,29.91
2022-07-28T15:50:26.627Z,29.80
2022-07-28T15:55:28.593Z,29.97
2022-07-28T16:00:30.805Z,29.72
2022-07-28T16:05:32.959Z,30.53
2022-07-28T16:10:34.885Z,30.16
2022-07-28T16:15:37.176Z,30.33
2022-07-28T16:20:39.223Z,29.94
2022-07-28T16:25:44.898Z,29.85
2022-07-28T16:30:48.121Z,30.13
2022-07-28T16:35:50.056Z,30.52
2022-07-28T16:40:54.395Z,30.31
2022-07-28T16:45:56.385Z,30.52
2022-07-28T16:50:58.152Z,30.92
2022-07-28T16:56:00.072Z,31.07
2022-07-28T17:01:02.114Z,30.84
2022-07-28T17:06:08.366Z,31.36
2022-07-28T17:11:10.196Z,31.35
2022-07-28T17:16:12.367Z,31.10
2022-07-28T17:21:14.307Z,30.66
2022-07-28T17:31:39.299Z,30.59
2022-07-28T17:36:45.695Z,30.51
2022-07-28T17:41:47.695Z,31.32
2022-07-28T17:46:50.326Z,31.32
2022-07-28T17:51:52.440Z,31.21
2022-07-28T17:56:54.507Z,31.66
2022-07-28T18:01:56.599Z,31.89
2022-07-28T18:06:58.496Z,31.85
2022-07-28T18:12:00.421Z,31.86
2022-07-28T18:17:02.762Z,30.97
2022-07-28T18:22:05.506Z,30.81
2022-07-28T18:27:07.319Z,30.46
2022-07-28T18:32:09.766Z,30.65
2022-07-28T18:37:15.887Z,30.92
2022-07-28T18:42:17.800Z,30.86
2022-07-28T18:47:20.405Z,31.55
2022-07-28T18:52:23.275Z,31.76
2022-07-28T18:57:25.516Z,31.42
2022-07-28T19:02:27.759Z,31.00
2022-07-28T19:07:30.315Z,31.41
2022-07-28T19:12:33.285Z,31.26
2022-07-28T19:17:35.343Z,31.18
2022-07-28T19:22:40.551Z,30.98
2022-07-28T19:27:42.570Z,31.44
2022-07-28T19:32:44.595Z,31.30
2022-07-28T19:37:46.447Z,31.34
2022-07-28T19:42:50.740Z,31.41
2022-07-28T19:47:53.118Z,31.92
2022-07-28T19:52:55.434Z,32.06
2022-07-28T19:57:59.515Z,31.88
2022-07-28T20:03:01.490Z,32.03
2022-07-28T20:08:03.499Z,32.02
2022-07-28T20:13:05.341Z,32.09
2022-07-28T20:18:07.451Z,32.00
2022-07-28T20:23:09.430Z,32.35
2022-07-28T20:28:12.503Z,32.15
2022-07-28T20:33:14.652Z,32.45
2022-07-28T20:38:16.667Z,32.76
2022-07-28T20:43:18.523Z,32.58
2022-07-28T20:48:21.549Z,32.20
2022-07-28T20:53:23.883Z,32.76
2022-07-28T20:58:26.338Z,32.85
2022-07-28T21:03:29.029Z,32.85
2022-07-28T21:08:30.910Z,33.18
2022-07-28T21:13:33.052Z,32.77
2022-07-28T21:18:35.005Z,32.89
2022-07-28T21:23:36.851Z,32.71
2022-07-28T21:28:57.666Z,32.70
2022-07-28T21:33:59.461Z,32.68
2022-07-28T21:39:02.403Z,32.87
2022-07-28T21:44:04.470Z,32.48
2022-07-28T21:49:06.513Z,32.63
2022-07-28T21:54:08.578Z,32.68
2022-07-28T21:59:10.771Z,32.60
2022-07-28T22:04:12.835Z,32.34
2022-07-28T22:09:15.350Z,32.64
2022-07-28T22:14:17.580Z,32.41
2022-07-28T22:19:19.723Z,32.36
2022-07-28T22:24:21.876Z,32.46
2022-07-28T22:29:23.941Z,32.36
2022-07-28T22:34:25.905Z,32.42
2022-07-28T22:39:28.221Z,32.37
2022-07-28T22:44:30.672Z,32.32
2022-07-28T22:49:32.722Z,32.45
2022-07-28T22:54:39.162Z,32.30
2022-07-28T22:59:41.306Z,32.48
2022-07-28T23:04:46.941Z,32.49
2022-07-28T23:09:51.845Z,32.73
2022-07-28T23:14:53.896Z,32.52
2022-07-28T23:19:59.133Z,32.40
2022-07-28T23:25:01.591Z,32.58
2022-07-28T23:30:04.249Z,32.55
2022-07-28T23:35:06.461Z,32.83
2022-07-28T23:40:08.964Z,32.79
2022-07-28T23:45:11.350Z,32.76
2022-07-28T23:50:13.404Z,33.00
2022-07-28T23:55:15.451Z,32.78
